Echo, Minnesota
Current Conditions -  °F | °C
As of 3:53 PM on Saturday 25 Oct 2014 (Local Time) from KGDB Reporting Station
Clear Clear  
Wind Chill: 63°   Ceiling: Unl
Heat Index: 63°   Visibility: 10mi
Dew Point: 30°   Wind: 12mph
Humidity: 29%   Direction: 300°WNW
Pressure: 30.11"   Gusts: 17mph
Location:  44.62°N, 95.42°W
Report Text: KGDB 252053Z AUTO 30010G15KT 10SM CLR 17/M01 A3011 RMK AO2 T01721009
Loading
Personal Weather Stations






























Interactive Weather Map
Tropical Storm Tracking
New forecast layout! Learn more

10-Day Weather Forecast

Advertisements
Track Severe Weather on mobile